createdAt,value
2018-07-09T00:00:15.020Z,24.75
2018-07-09T00:01:15.019Z,24.82
2018-07-09T00:02:15.006Z,24.84
2018-07-09T00:03:15.001Z,24.82
2018-07-09T00:04:14.993Z,24.82
2018-07-09T00:05:15.076Z,24.86
2018-07-09T00:06:14.989Z,24.84
2018-07-09T00:07:14.972Z,24.84
2018-07-09T00:08:14.966Z,24.81
2018-07-09T00:09:14.959Z,24.69
2018-07-09T00:10:14.952Z,24.69
2018-07-09T00:11:14.946Z,24.77
2018-07-09T00:12:14.937Z,24.77
2018-07-09T00:13:14.934Z,24.79
2018-07-09T00:14:14.924Z,24.78
2018-07-09T00:15:14.919Z,24.78
2018-07-09T00:16:14.914Z,24.75
2018-07-09T00:17:14.908Z,24.71
2018-07-09T00:18:14.901Z,24.77
2018-07-09T00:19:14.891Z,24.75
2018-07-09T00:20:14.885Z,24.71
2018-07-09T00:21:14.882Z,24.71
2018-07-09T00:22:14.873Z,24.78
2018-07-09T00:23:14.862Z,24.75
2018-07-09T00:24:14.857Z,24.74
2018-07-09T00:25:14.853Z,24.69
2018-07-09T00:26:14.842Z,24.68
2018-07-09T00:27:14.836Z,24.69
2018-07-09T00:28:14.830Z,24.79
2018-07-09T00:29:14.823Z,24.71
2018-07-09T00:30:14.816Z,24.79
2018-07-09T00:31:14.810Z,24.74
2018-07-09T00:32:14.832Z,24.69
2018-07-09T00:33:14.802Z,24.71
2018-07-09T00:34:14.789Z,24.68
2018-07-09T00:35:14.786Z,24.71
2018-07-09T00:36:14.774Z,24.74
2018-07-09T00:37:14.772Z,24.69
2018-07-09T00:38:14.760Z,24.75
2018-07-09T00:39:14.754Z,24.68
2018-07-09T00:40:14.758Z,24.68
2018-07-09T00:41:14.741Z,24.65
2018-07-09T00:42:14.732Z,24.66
2018-07-09T00:43:14.729Z,24.75
2018-07-09T00:44:14.720Z,24.82
2018-07-09T00:45:14.734Z,24.71
2018-07-09T00:46:14.709Z,24.65
2018-07-09T00:47:14.700Z,24.65
2018-07-09T00:48:14.694Z,24.71
2018-07-09T00:49:14.687Z,24.71
2018-07-09T00:50:14.681Z,24.66
2018-07-09T00:51:14.674Z,24.74
2018-07-09T00:52:14.667Z,24.71
2018-07-09T00:53:14.661Z,24.66
2018-07-09T00:54:14.652Z,24.68
2018-07-09T00:55:14.645Z,24.65
2018-07-09T00:56:14.641Z,24.65
2018-07-09T00:57:14.634Z,24.69
2018-07-09T00:58:14.626Z,24.65
2018-07-09T00:59:14.618Z,24.71
2018-07-09T01:00:14.609Z,24.65
2018-07-09T01:01:14.614Z,24.69
2018-07-09T01:02:14.623Z,24.65
2018-07-09T01:03:14.590Z,24.69
2018-07-09T01:04:14.584Z,24.62
2018-07-09T01:05:14.578Z,24.66
2018-07-09T01:06:14.571Z,24.65
2018-07-09T01:07:14.563Z,24.66
2018-07-09T01:08:14.557Z,24.62
2018-07-09T01:09:14.569Z,24.66
2018-07-09T01:10:14.543Z,24.66
2018-07-09T01:11:14.539Z,24.71
2018-07-09T01:12:14.530Z,24.65
2018-07-09T01:13:14.527Z,24.66
2018-07-09T01:14:14.514Z,24.68
2018-07-09T01:15:14.508Z,24.69
2018-07-09T01:16:14.503Z,24.65
2018-07-09T01:17:14.495Z,24.62
2018-07-09T01:18:14.489Z,24.61
2018-07-09T01:19:14.480Z,24.63
2018-07-09T01:20:14.477Z,24.63
2018-07-09T01:21:14.470Z,24.63
2018-07-09T01:22:14.461Z,24.62
2018-07-09T01:23:14.454Z,24.61
2018-07-09T01:24:14.447Z,24.63
2018-07-09T01:25:14.440Z,24.71
2018-07-09T01:26:14.434Z,24.65
2018-07-09T01:27:14.425Z,24.63
2018-07-09T01:28:14.420Z,24.58
2018-07-09T01:29:14.413Z,24.62
2018-07-09T01:30:14.405Z,24.61
2018-07-09T01:31:14.403Z,24.62
2018-07-09T01:32:14.391Z,24.59
2018-07-09T01:33:14.391Z,24.65
2018-07-09T01:34:14.378Z,24.55
2018-07-09T01:35:14.374Z,24.59
2018-07-09T01:36:14.368Z,24.61
2018-07-09T01:37:14.356Z,24.62
2018-07-09T01:38:14.351Z,24.63
2018-07-09T01:39:14.345Z,24.58
2018-07-09T01:40:14.339Z,24.62
2018-07-09T01:41:14.330Z,24.63
2018-07-09T01:42:14.323Z,24.63
2018-07-09T01:43:14.316Z,24.58
2018-07-09T01:44:14.311Z,24.59
2018-07-09T01:45:14.303Z,24.55
2018-07-09T01:46:14.317Z,24.55
2018-07-09T01:47:14.289Z,24.58
2018-07-09T01:48:14.282Z,24.59
2018-07-09T01:49:14.277Z,24.59
2018-07-09T01:50:14.268Z,24.59
2018-07-09T01:51:14.264Z,24.53
2018-07-09T01:52:14.254Z,24.61
2018-07-09T01:53:14.246Z,24.61
2018-07-09T01:54:14.240Z,24.58
2018-07-09T01:55:14.235Z,24.55
2018-07-09T01:56:14.228Z,24.58
2018-07-09T01:57:14.221Z,24.63
2018-07-09T01:58:14.213Z,24.66
2018-07-09T01:59:14.205Z,24.58
2018-07-09T02:00:14.199Z,24.58
2018-07-09T02:01:14.196Z,24.63
2018-07-09T02:02:14.184Z,24.58
2018-07-09T02:03:14.179Z,24.55
2018-07-09T02:04:14.171Z,24.51
2018-07-09T02:05:14.166Z,24.61
2018-07-09T02:06:14.159Z,24.50
2018-07-09T02:07:14.150Z,24.58
2018-07-09T02:08:14.144Z,24.59
2018-07-09T02:09:14.137Z,24.61
2018-07-09T02:10:14.130Z,24.56
2018-07-09T02:11:14.127Z,24.58
2018-07-09T02:12:14.117Z,24.46
2018-07-09T02:13:14.112Z,24.47
2018-07-09T02:14:14.101Z,24.50
2018-07-09T02:15:14.095Z,24.44
2018-07-09T02:16:14.089Z,24.47
2018-07-09T02:17:14.083Z,24.46
2018-07-09T02:18:14.078Z,24.43
2018-07-09T02:19:14.067Z,24.48
2018-07-09T02:20:14.061Z,24.43
2018-07-09T02:21:14.054Z,24.44
2018-07-09T02:22:14.047Z,24.44
2018-07-09T02:23:14.040Z,24.46
2018-07-09T02:24:14.034Z,24.47
2018-07-09T02:25:14.026Z,24.41
2018-07-09T02:26:14.018Z,24.44
2018-07-09T02:27:14.013Z,24.48
2018-07-09T02:28:14.009Z,24.48
2018-07-09T02:29:13.997Z,24.44
2018-07-09T02:30:13.993Z,24.41
2018-07-09T02:31:13.985Z,24.46
2018-07-09T02:32:13.977Z,24.48
2018-07-09T02:33:13.972Z,24.48
2018-07-09T02:34:13.964Z,24.38
2018-07-09T02:35:13.958Z,24.41
2018-07-09T02:36:13.952Z,24.43
2018-07-09T02:37:13.946Z,24.46
2018-07-09T02:38:13.936Z,24.48
2018-07-09T02:39:13.930Z,24.43
2018-07-09T02:40:13.925Z,24.44
2018-07-09T02:41:13.916Z,24.44
2018-07-09T02:42:13.914Z,24.43
2018-07-09T02:43:13.905Z,24.38
2018-07-09T02:44:13.896Z,24.34
2018-07-09T02:45:13.888Z,24.36
2018-07-09T02:46:13.881Z,24.41
2018-07-09T02:47:13.873Z,24.36
2018-07-09T02:48:13.867Z,24.40
2018-07-09T02:49:13.872Z,24.41
2018-07-09T02:50:13.856Z,24.36
2018-07-09T02:51:13.846Z,24.38
2018-07-09T02:52:13.841Z,24.34
2018-07-09T02:53:13.833Z,24.37
2018-07-09T02:54:13.825Z,24.38
2018-07-09T02:55:13.820Z,24.36
2018-07-09T02:56:13.812Z,24.34
2018-07-09T02:57:13.805Z,24.37
2018-07-09T02:58:13.797Z,24.29
2018-07-09T02:59:13.791Z,24.41
2018-07-09T03:00:13.784Z,24.36
2018-07-09T03:01:13.886Z,24.38
2018-07-09T03:02:13.768Z,24.34
2018-07-09T03:03:13.764Z,24.29
2018-07-09T03:04:13.756Z,24.31
2018-07-09T03:05:13.752Z,24.24
2018-07-09T03:06:13.741Z,24.28
2018-07-09T03:07:13.735Z,24.32
2018-07-09T03:08:13.729Z,24.34
2018-07-09T03:09:13.728Z,24.32
2018-07-09T03:10:13.711Z,24.37
2018-07-09T03:11:13.706Z,24.29
2018-07-09T03:12:13.698Z,24.18
2018-07-09T03:13:13.693Z,24.26
2018-07-09T03:14:13.685Z,24.25
2018-07-09T03:15:13.679Z,24.21
2018-07-09T03:16:13.673Z,24.25
2018-07-09T03:17:13.666Z,24.26
2018-07-09T03:18:13.662Z,24.19
2018-07-09T03:19:13.679Z,24.21
2018-07-09T03:20:13.643Z,24.18
2018-07-09T03:21:13.641Z,24.18
2018-07-09T03:22:13.629Z,24.25
2018-07-09T03:23:13.620Z,24.19
2018-07-09T03:24:13.623Z,24.22
2018-07-09T03:25:13.609Z,24.21
2018-07-09T03:26:13.609Z,24.25
2018-07-09T03:27:13.595Z,24.24
2018-07-09T03:28:13.589Z,24.21
2018-07-09T03:29:13.584Z,24.28
2018-07-09T03:30:13.576Z,24.31
2018-07-09T03:31:13.568Z,24.26
2018-07-09T03:32:13.560Z,24.32
2018-07-09T03:33:13.555Z,24.31
2018-07-09T03:34:13.545Z,24.34
2018-07-09T03:35:13.538Z,24.36
2018-07-09T03:36:13.532Z,24.43
2018-07-09T03:37:13.524Z,24.46
2018-07-09T03:38:13.516Z,24.32
2018-07-09T03:39:13.513Z,24.48
2018-07-09T03:40:13.501Z,24.43
2018-07-09T03:41:13.494Z,24.46
2018-07-09T03:42:13.490Z,24.41
2018-07-09T03:43:13.482Z,24.26
2018-07-09T03:44:13.475Z,24.19
2018-07-09T03:45:13.466Z,24.06
2018-07-09T03:46:13.462Z,24.07
2018-07-09T03:47:13.454Z,23.94
2018-07-09T03:48:13.450Z,23.96
2018-07-09T03:49:13.436Z,23.94
2018-07-09T03:50:13.439Z,23.88
2018-07-09T03:51:13.428Z,23.84
2018-07-09T03:52:13.421Z,23.86
2018-07-09T03:53:13.418Z,23.81
2018-07-09T03:54:13.416Z,23.92
2018-07-09T03:55:13.405Z,23.89
2018-07-09T03:56:13.390Z,23.73
2018-07-09T03:57:13.392Z,23.79
2018-07-09T03:58:13.385Z,23.81
2018-07-09T03:59:13.384Z,23.73
2018-07-09T04:00:13.371Z,23.84
2018-07-09T04:01:13.369Z,23.76
2018-07-09T04:02:13.380Z,23.74
2018-07-09T04:03:13.359Z,23.77
2018-07-09T04:04:13.349Z,23.74
2018-07-09T04:05:13.345Z,23.81
2018-07-09T04:06:13.333Z,23.82
2018-07-09T04:07:13.329Z,23.70
2018-07-09T04:08:13.324Z,23.84
2018-07-09T04:09:13.317Z,23.70
2018-07-09T04:10:13.310Z,23.82
2018-07-09T04:11:13.305Z,23.74
2018-07-09T04:12:13.299Z,23.70
2018-07-09T04:13:13.293Z,23.79
2018-07-09T04:14:13.285Z,23.81
2018-07-09T04:15:13.281Z,23.70
2018-07-09T04:16:13.289Z,23.81
2018-07-09T04:17:13.267Z,23.76
2018-07-09T04:18:13.272Z,23.77
2018-07-09T04:19:13.256Z,23.73
2018-07-09T04:20:13.248Z,23.84
2018-07-09T04:21:13.245Z,23.70
2018-07-09T04:22:13.238Z,23.73
2018-07-09T04:23:13.256Z,23.77
2018-07-09T04:24:13.241Z,23.79
2018-07-09T04:25:13.224Z,23.70
2018-07-09T04:26:13.219Z,23.82
2018-07-09T04:27:13.225Z,23.77
2018-07-09T04:28:13.203Z,23.79
2018-07-09T04:29:13.200Z,23.79
2018-07-09T04:30:13.192Z,23.76
2018-07-09T04:31:13.186Z,23.77
2018-07-09T04:32:13.179Z,23.81
2018-07-09T04:33:13.174Z,23.82
2018-07-09T04:34:13.236Z,23.81
2018-07-09T04:35:13.161Z,23.84
2018-07-09T04:36:13.168Z,23.76
2018-07-09T04:37:13.149Z,23.84
2018-07-09T04:38:13.144Z,23.77
2018-07-09T04:39:13.137Z,23.76
2018-07-09T04:40:13.132Z,23.79
2018-07-09T04:41:13.127Z,23.88
2018-07-09T04:42:13.120Z,23.81
2018-07-09T04:43:13.158Z,23.76
2018-07-09T04:44:13.111Z,23.81
2018-07-09T04:45:13.103Z,23.74
2018-07-09T04:46:13.102Z,23.84
2018-07-09T04:47:13.090Z,23.76
2018-07-09T04:48:13.088Z,23.79
2018-07-09T04:49:13.082Z,23.76
2018-07-09T04:50:13.101Z,23.85
2018-07-09T04:51:13.083Z,23.85
2018-07-09T04:52:13.087Z,23.81
2018-07-09T04:53:13.061Z,23.82
2018-07-09T04:54:13.060Z,23.84
2018-07-09T04:55:13.046Z,23.82
2018-07-09T04:56:13.041Z,23.82
2018-07-09T04:57:13.034Z,23.82
2018-07-09T04:58:13.029Z,23.81
2018-07-09T04:59:13.037Z,23.88
2018-07-09T05:00:13.016Z,23.84
2018-07-09T05:01:13.021Z,23.85
2018-07-09T05:02:13.004Z,23.84
2018-07-09T05:03:13.000Z,23.79
2018-07-09T05:04:12.993Z,23.88
2018-07-09T05:05:12.993Z,23.82
2018-07-09T05:06:12.988Z,23.89
2018-07-09T05:07:12.977Z,23.86
2018-07-09T05:08:12.971Z,23.95
2018-07-09T05:09:12.965Z,23.85
2018-07-09T05:10:12.959Z,23.86
2018-07-09T05:11:12.958Z,23.95
2018-07-09T05:12:12.947Z,23.94
2018-07-09T05:13:12.942Z,23.94
2018-07-09T05:14:12.937Z,23.95
2018-07-09T05:15:12.931Z,23.94
2018-07-09T05:16:12.922Z,23.92
2018-07-09T05:17:12.919Z,23.92
2018-07-09T05:18:12.913Z,23.89
2018-07-09T05:19:12.907Z,23.91
2018-07-09T05:20:12.921Z,23.92
2018-07-09T05:21:12.895Z,23.91
2018-07-09T05:22:12.889Z,23.92
2018-07-09T05:23:12.886Z,23.92
2018-07-09T05:24:12.879Z,23.94
2018-07-09T05:25:12.873Z,23.91
2018-07-09T05:26:12.868Z,23.92
2018-07-09T05:27:12.864Z,23.92
2018-07-09T05:28:12.859Z,23.92
2018-07-09T05:29:12.851Z,24.00
2018-07-09T05:30:12.845Z,23.94
2018-07-09T05:31:12.839Z,23.96
2018-07-09T05:32:12.833Z,23.94
2018-07-09T05:33:12.836Z,23.89
2018-07-09T05:34:12.820Z,24.00
2018-07-09T05:35:12.824Z,23.94
2018-07-09T05:36:12.813Z,24.03
2018-07-09T05:37:12.809Z,23.94
2018-07-09T05:38:12.799Z,23.95
2018-07-09T05:39:12.816Z,23.96
2018-07-09T05:40:12.821Z,23.92
2018-07-09T05:41:12.782Z,23.96
2018-07-09T05:42:12.773Z,24.04
2018-07-09T05:43:12.776Z,24.04
2018-07-09T05:44:12.768Z,23.94
2018-07-09T05:45:12.768Z,24.04
2018-07-09T05:46:12.755Z,24.07
2018-07-09T05:47:12.751Z,24.09
2018-07-09T05:48:12.745Z,24.10
2018-07-09T05:49:12.737Z,24.01
2018-07-09T05:50:12.731Z,24.07
2018-07-09T05:51:12.726Z,24.06
2018-07-09T05:52:12.721Z,24.09
2018-07-09T05:53:12.715Z,24.11
2018-07-09T05:54:12.708Z,24.10
2018-07-09T05:55:12.705Z,24.11
2018-07-09T05:56:12.699Z,24.14
2018-07-09T05:57:12.701Z,24.13
2018-07-09T05:58:12.683Z,24.13
2018-07-09T05:59:12.680Z,24.11
2018-07-09T06:00:12.678Z,24.13
2018-07-09T06:01:12.671Z,24.19
2018-07-09T06:02:12.665Z,24.16
2018-07-09T06:03:12.659Z,24.18
2018-07-09T06:04:12.654Z,24.18
2018-07-09T06:05:12.650Z,24.22
2018-07-09T06:06:12.642Z,24.16
2018-07-09T06:07:12.636Z,24.21
2018-07-09T06:08:12.631Z,24.14
2018-07-09T06:09:12.629Z,24.18
2018-07-09T06:10:12.619Z,24.22
2018-07-09T06:11:12.660Z,24.24
2018-07-09T06:12:12.610Z,24.24
2018-07-09T06:13:12.614Z,24.21
2018-07-09T06:14:12.593Z,24.25
2018-07-09T06:15:12.592Z,24.24
2018-07-09T06:16:12.586Z,24.21
2018-07-09T06:17:12.584Z,24.25
2018-07-09T06:18:12.576Z,24.25
2018-07-09T06:19:12.642Z,24.32
2018-07-09T06:20:12.564Z,24.29
2018-07-09T06:21:12.560Z,24.32
2018-07-09T06:22:12.556Z,24.26
2018-07-09T06:23:12.548Z,24.31
2018-07-09T06:24:12.542Z,24.41
2018-07-09T06:25:12.538Z,24.40
2018-07-09T06:26:12.532Z,24.38
2018-07-09T06:27:12.518Z,24.37
2018-07-09T06:28:12.525Z,24.37
2018-07-09T06:29:12.515Z,24.43
2018-07-09T06:30:12.511Z,24.46
2018-07-09T06:31:12.505Z,24.34
2018-07-09T06:32:12.497Z,24.44
2018-07-09T06:33:12.493Z,24.43
2018-07-09T06:34:12.499Z,24.46
2018-07-09T06:35:12.484Z,24.48
2018-07-09T06:36:12.481Z,24.47
2018-07-09T06:37:12.471Z,24.53
2018-07-09T06:38:12.463Z,24.46
2018-07-09T06:39:12.477Z,24.48
2018-07-09T06:40:12.455Z,24.55
2018-07-09T06:41:12.445Z,24.55
2018-07-09T06:42:12.452Z,24.55
2018-07-09T06:43:12.463Z,24.62
2018-07-09T06:44:12.431Z,24.46
2018-07-09T06:45:12.434Z,24.58
2018-07-09T06:46:12.474Z,24.56
2018-07-09T06:47:12.420Z,24.53
2018-07-09T06:48:12.430Z,24.56
2018-07-09T06:49:12.410Z,24.62
2018-07-09T06:50:12.401Z,24.63
2018-07-09T06:51:12.397Z,24.63
2018-07-09T06:52:12.388Z,24.66
2018-07-09T06:53:12.387Z,24.66
2018-07-09T06:54:12.380Z,24.69
2018-07-09T06:55:12.371Z,24.63
2018-07-09T06:56:12.381Z,24.74
2018-07-09T06:57:12.362Z,24.68
2018-07-09T06:58:12.362Z,24.71
2018-07-09T06:59:12.351Z,24.74
2018-07-09T07:00:12.346Z,24.69
2018-07-09T07:01:12.344Z,24.71
2018-07-09T07:02:12.387Z,24.74
2018-07-09T07:03:12.330Z,24.69
2018-07-09T07:04:12.326Z,24.75
2018-07-09T07:05:12.321Z,24.78
2018-07-09T07:06:12.314Z,24.75
2018-07-09T07:07:12.309Z,24.82
2018-07-09T07:08:12.303Z,24.85
2018-07-09T07:09:12.396Z,24.82
2018-07-09T07:10:12.294Z,24.79
2018-07-09T07:11:12.288Z,24.84
2018-07-09T07:12:12.303Z,24.86
2018-07-09T07:13:12.281Z,24.92
2018-07-09T07:14:12.287Z,24.93
2018-07-09T07:15:12.267Z,24.85
2018-07-09T07:16:12.261Z,24.86
2018-07-09T07:17:12.267Z,24.89
2018-07-09T07:18:12.254Z,24.88
2018-07-09T07:19:12.245Z,24.99
2018-07-09T07:20:12.241Z,24.96
2018-07-09T07:21:12.238Z,25.01
2018-07-09T07:22:12.228Z,24.99
2018-07-09T07:23:12.226Z,25.09
2018-07-09T07:24:12.220Z,24.99
2018-07-09T07:25:12.227Z,24.99
2018-07-09T07:26:12.210Z,25.09
2018-07-09T07:27:12.205Z,25.00
2018-07-09T07:28:12.200Z,25.07
2018-07-09T07:29:12.193Z,25.01
2018-07-09T07:30:12.187Z,25.03
2018-07-09T07:31:12.182Z,25.06
2018-07-09T07:32:12.178Z,25.11
2018-07-09T07:33:12.217Z,25.03
2018-07-09T07:34:12.165Z,25.04
2018-07-09T07:35:12.215Z,25.15
2018-07-09T07:36:12.156Z,25.11
2018-07-09T07:37:12.152Z,25.15
2018-07-09T07:38:12.146Z,25.18
2018-07-09T07:39:12.140Z,25.18
2018-07-09T07:40:12.135Z,25.25
2018-07-09T07:41:12.122Z,25.21
2018-07-09T07:42:12.142Z,25.21
2018-07-09T07:43:12.116Z,25.19
2018-07-09T07:44:12.114Z,25.21
2018-07-09T07:45:12.110Z,25.25
2018-07-09T07:46:12.103Z,25.26
2018-07-09T07:47:12.099Z,25.21
2018-07-09T07:48:12.094Z,25.31
2018-07-09T07:49:12.090Z,25.26
2018-07-09T07:50:12.161Z,25.30
2018-07-09T07:51:12.077Z,25.25
2018-07-09T07:52:12.072Z,25.37
2018-07-09T07:53:12.068Z,25.39
2018-07-09T07:54:12.064Z,25.34
2018-07-09T07:55:12.077Z,25.30
2018-07-09T07:56:12.053Z,25.37
2018-07-09T07:57:12.052Z,25.36
2018-07-09T07:58:12.043Z,25.40
2018-07-09T07:59:12.038Z,25.39
2018-07-09T08:00:12.036Z,25.33
2018-07-09T08:01:12.020Z,25.48
2018-07-09T08:02:12.023Z,25.40
2018-07-09T08:03:12.030Z,25.44
2018-07-09T08:04:12.012Z,25.48
2018-07-09T08:05:12.006Z,25.52
2018-07-09T08:06:12.002Z,25.54
2018-07-09T08:07:12.010Z,25.43
2018-07-09T08:08:11.992Z,25.52
2018-07-09T08:09:12.042Z,25.49
2018-07-09T08:10:11.981Z,25.51
2018-07-09T08:11:11.977Z,25.56
2018-07-09T08:13:00.557Z,25.59
2018-07-09T08:13:27.981Z,25.62
2018-07-09T08:14:11.961Z,25.55
2018-07-09T08:15:11.956Z,25.66
2018-07-09T08:16:11.952Z,25.67
2018-07-09T08:17:11.957Z,25.67
2018-07-09T08:18:11.941Z,25.59
2018-07-09T08:19:11.932Z,25.66
2018-07-09T08:20:11.931Z,25.63
2018-07-09T08:21:11.926Z,25.70
2018-07-09T08:22:11.922Z,25.67
2018-07-09T08:23:11.914Z,25.74
2018-07-09T08:24:11.911Z,25.76
2018-07-09T08:25:11.937Z,25.77
2018-07-09T08:26:11.901Z,25.78
2018-07-09T08:27:11.900Z,25.73
2018-07-09T08:28:11.892Z,25.81
2018-07-09T08:29:11.904Z,25.80
2018-07-09T08:30:11.882Z,25.93
2018-07-09T08:31:11.983Z,25.83
2018-07-09T08:32:11.872Z,25.88
2018-07-09T08:33:11.868Z,25.91
2018-07-09T08:34:11.856Z,25.89
2018-07-09T08:35:11.860Z,25.93
2018-07-09T08:36:11.854Z,25.96
2018-07-09T08:37:11.860Z,25.98
2018-07-09T08:38:11.842Z,25.99
2018-07-09T08:39:11.838Z,26.01
2018-07-09T08:40:11.833Z,25.98
2018-07-09T08:41:11.829Z,25.99
2018-07-09T08:42:11.823Z,26.06
2018-07-09T08:43:11.849Z,25.96
2018-07-09T08:44:11.814Z,26.10
2018-07-09T08:45:11.809Z,26.16
2018-07-09T08:46:11.804Z,26.13
2018-07-09T08:47:11.801Z,26.10
2018-07-09T08:48:11.791Z,25.99
2018-07-09T08:49:11.790Z,26.01
2018-07-09T08:50:11.784Z,26.08
2018-07-09T08:51:11.787Z,26.15
2018-07-09T08:52:11.798Z,26.18
2018-07-09T08:53:11.773Z,26.16
2018-07-09T08:54:11.765Z,26.13
2018-07-09T08:55:11.793Z,26.22
2018-07-09T08:56:11.757Z,26.24
2018-07-09T08:57:11.753Z,26.26
2018-07-09T08:58:11.745Z,26.30
2018-07-09T08:59:11.742Z,26.29
2018-07-09T09:00:11.737Z,26.26
2018-07-09T09:01:11.726Z,26.30
2018-07-09T09:02:11.734Z,26.30
2018-07-09T09:03:11.723Z,26.33
2018-07-09T09:04:11.717Z,26.36
2018-07-09T09:05:11.714Z,26.30
2018-07-09T09:06:11.710Z,26.29
2018-07-09T09:07:11.704Z,26.31
2018-07-09T09:08:11.700Z,26.37
2018-07-09T09:09:11.695Z,26.34
2018-07-09T09:10:11.753Z,26.45
2018-07-09T09:11:11.686Z,26.41
2018-07-09T09:12:11.696Z,26.42
2018-07-09T09:13:11.676Z,26.52
2018-07-09T09:14:11.679Z,26.45
2018-07-09T09:15:11.670Z,26.51
2018-07-09T09:16:11.663Z,26.52
2018-07-09T09:17:11.662Z,26.52
2018-07-09T09:18:11.653Z,26.53
2018-07-09T09:19:11.649Z,26.59
2018-07-09T09:20:11.645Z,26.60
2018-07-09T09:21:11.643Z,26.53
2018-07-09T09:22:11.665Z,26.64
2018-07-09T09:23:11.647Z,26.56
2018-07-09T09:24:11.626Z,26.60
2018-07-09T09:25:11.624Z,26.61
2018-07-09T09:26:11.618Z,26.61
2018-07-09T09:27:11.887Z,26.64
2018-07-09T09:28:11.620Z,26.61
2018-07-09T09:29:11.605Z,26.66
2018-07-09T09:30:11.600Z,26.64
2018-07-09T09:31:11.640Z,26.67
2018-07-09T09:32:11.631Z,26.73
2018-07-09T09:33:11.588Z,26.79
2018-07-09T09:34:11.582Z,26.81
2018-07-09T09:35:11.577Z,26.82
2018-07-09T09:36:11.576Z,26.78
2018-07-09T09:37:11.571Z,26.81
2018-07-09T09:38:11.566Z,26.89
2018-07-09T09:39:12.546Z,26.82
2018-07-09T09:40:11.625Z,26.86
2018-07-09T09:41:11.550Z,26.86
2018-07-09T09:42:11.547Z,26.88
2018-07-09T09:43:11.602Z,26.81
2018-07-09T09:44:11.538Z,26.88
2018-07-09T09:45:11.537Z,26.82
2018-07-09T09:46:11.538Z,26.86
2018-07-09T09:47:11.530Z,26.86
2018-07-09T09:48:11.520Z,26.93
2018-07-09T09:49:11.520Z,26.86
2018-07-09T09:50:11.520Z,26.89
2018-07-09T09:51:11.509Z,26.83
2018-07-09T09:52:11.542Z,26.89
2018-07-09T09:53:11.501Z,26.98
2018-07-09T09:54:11.496Z,26.96
2018-07-09T09:55:11.490Z,27.00
2018-07-09T09:56:11.483Z,27.01
2018-07-09T09:57:11.482Z,27.05
2018-07-09T09:58:11.477Z,27.00
2018-07-09T09:59:11.473Z,26.98
2018-07-09T10:00:11.468Z,27.04
2018-07-09T10:01:11.462Z,27.04
2018-07-09T10:02:11.458Z,27.03
2018-07-09T10:03:11.454Z,27.03
2018-07-09T10:04:11.452Z,27.04
2018-07-09T10:05:11.445Z,27.04
2018-07-09T10:06:11.451Z,27.00
2018-07-09T10:07:11.438Z,27.13
2018-07-09T10:08:11.434Z,27.08
2018-07-09T10:09:11.430Z,27.11
2018-07-09T10:10:11.433Z,27.15
2018-07-09T10:11:11.423Z,27.19
2018-07-09T10:12:11.417Z,27.13
2018-07-09T10:13:11.417Z,27.16
2018-07-09T10:14:11.410Z,27.13
2018-07-09T10:15:11.406Z,27.18
2018-07-09T10:16:11.396Z,27.20
2018-07-09T10:17:11.397Z,27.20
2018-07-09T10:18:11.406Z,27.23
2018-07-09T10:19:11.388Z,27.25
2018-07-09T10:20:11.385Z,27.15
2018-07-09T10:21:11.380Z,27.25
2018-07-09T10:22:11.374Z,27.26
2018-07-09T10:23:11.559Z,27.22
2018-07-09T10:24:11.366Z,27.23
2018-07-09T10:25:11.363Z,27.16
2018-07-09T10:26:11.359Z,27.26
2018-07-09T10:27:11.356Z,27.19
2018-07-09T10:28:11.350Z,27.23
2018-07-09T10:29:11.345Z,27.22
2018-07-09T10:30:11.342Z,27.15
2018-07-09T10:31:11.337Z,27.22
2018-07-09T10:32:11.333Z,27.16
2018-07-09T10:33:11.330Z,27.20
2018-07-09T10:34:11.325Z,27.23
2018-07-09T10:35:11.315Z,27.25
2018-07-09T10:36:11.317Z,27.22
2018-07-09T10:37:11.356Z,27.15
2018-07-09T10:38:11.310Z,27.25
2018-07-09T10:39:11.303Z,27.20
2018-07-09T10:40:11.301Z,27.23
2018-07-09T10:41:11.297Z,27.30
2018-07-09T10:42:11.294Z,27.33
2018-07-09T10:43:11.289Z,27.25
2018-07-09T10:44:11.284Z,27.25
2018-07-09T10:45:11.302Z,27.19
2018-07-09T10:46:11.276Z,27.26
2018-07-09T10:47:11.335Z,27.25
2018-07-09T10:48:11.268Z,27.33
2018-07-09T10:49:11.265Z,27.33
2018-07-09T10:50:11.260Z,27.30
2018-07-09T10:51:11.258Z,27.37
2018-07-09T10:52:11.253Z,27.33
2018-07-09T10:53:11.252Z,27.38
2018-07-09T10:54:11.247Z,27.37
2018-07-09T10:55:11.245Z,27.34
2018-07-09T10:56:11.235Z,27.37
2018-07-09T10:57:11.233Z,27.37
2018-07-09T10:58:11.227Z,27.37
2018-07-09T10:59:11.224Z,27.35
2018-07-09T11:00:11.221Z,27.34
2018-07-09T11:01:11.217Z,27.33
2018-07-09T11:02:11.212Z,27.28
2018-07-09T11:03:11.210Z,27.30
2018-07-09T11:04:11.204Z,27.34
2018-07-09T11:05:11.199Z,27.33
2018-07-09T11:06:11.196Z,27.35
2018-07-09T11:07:11.194Z,27.30
2018-07-09T11:08:11.188Z,27.33
2018-07-09T11:09:11.184Z,27.33
2018-07-09T11:10:11.181Z,27.26
2018-07-09T11:11:11.176Z,27.37
2018-07-09T11:12:11.173Z,27.37
2018-07-09T11:13:11.169Z,27.43
2018-07-09T11:14:11.165Z,27.35
2018-07-09T11:15:11.161Z,27.30
2018-07-09T11:16:11.176Z,27.30
2018-07-09T11:17:11.151Z,27.41
2018-07-09T11:18:11.150Z,27.43
2018-07-09T11:19:11.144Z,27.38
2018-07-09T11:20:11.140Z,27.38
2018-07-09T11:21:11.137Z,27.33
2018-07-09T11:22:11.133Z,27.33
2018-07-09T11:23:11.126Z,27.35
2018-07-09T11:24:11.125Z,27.40
2018-07-09T11:25:11.121Z,27.37
2018-07-09T11:26:11.118Z,27.40
2018-07-09T11:27:11.114Z,27.35
2018-07-09T11:28:11.111Z,27.35
2018-07-09T11:29:11.107Z,27.30
2018-07-09T11:30:11.102Z,27.33
2018-07-09T11:31:11.100Z,27.28
2018-07-09T11:32:11.095Z,27.38
2018-07-09T11:33:11.090Z,27.43
2018-07-09T11:34:11.102Z,27.41
2018-07-09T11:35:11.082Z,27.40
2018-07-09T11:36:11.080Z,27.34
2018-07-09T11:37:11.076Z,27.25
2018-07-09T11:38:11.070Z,27.28
2018-07-09T11:39:11.066Z,27.40
2018-07-09T11:40:11.064Z,27.40
2018-07-09T11:41:11.059Z,27.35
2018-07-09T11:42:11.071Z,27.30
2018-07-09T11:43:11.055Z,27.37
2018-07-09T11:44:11.048Z,27.33
2018-07-09T11:45:11.045Z,27.34
2018-07-09T11:46:11.040Z,27.35
2018-07-09T11:47:11.036Z,27.38
2018-07-09T11:48:11.033Z,27.33
2018-07-09T11:49:11.029Z,27.35
2018-07-09T11:50:11.023Z,27.33
2018-07-09T11:51:11.022Z,27.37
2018-07-09T11:52:11.022Z,27.40
2018-07-09T11:53:11.012Z,27.37
2018-07-09T11:54:11.027Z,27.41
2018-07-09T11:55:11.006Z,27.30
2018-07-09T11:56:11.002Z,27.38
2018-07-09T11:57:10.998Z,27.38
2018-07-09T11:58:10.993Z,27.38
2018-07-09T11:59:10.990Z,27.29
2018-07-09T12:00:10.989Z,27.34
2018-07-09T12:01:10.983Z,27.34
2018-07-09T12:02:10.978Z,27.35
2018-07-09T12:03:10.974Z,27.22
2018-07-09T12:04:10.988Z,27.26
2018-07-09T12:05:10.968Z,27.22
2018-07-09T12:06:10.963Z,27.26
2018-07-09T12:07:10.962Z,27.28
2018-07-09T12:08:10.955Z,27.30
2018-07-09T12:09:10.952Z,27.25
2018-07-09T12:10:10.949Z,27.23
2018-07-09T12:11:10.948Z,27.23
2018-07-09T12:12:10.941Z,27.23
2018-07-09T12:13:10.949Z,27.26
2018-07-09T12:14:10.933Z,27.22
2018-07-09T12:15:10.929Z,27.22
2018-07-09T12:16:10.925Z,27.19
2018-07-09T12:17:10.921Z,27.20
2018-07-09T12:18:10.916Z,27.33
2018-07-09T12:19:10.913Z,27.20
2018-07-09T12:20:10.910Z,27.22
2018-07-09T12:21:10.903Z,27.28
2018-07-09T12:22:10.901Z,27.22
2018-07-09T12:23:10.914Z,27.22
2018-07-09T12:24:10.898Z,27.20
2018-07-09T12:25:10.891Z,27.20
2018-07-09T12:26:10.885Z,27.19
2018-07-09T12:27:10.882Z,27.19
2018-07-09T12:28:10.881Z,27.19
2018-07-09T12:29:11.014Z,27.16
2018-07-09T12:30:10.870Z,27.26
2018-07-09T12:31:10.866Z,27.19
2018-07-09T12:32:10.864Z,27.26
2018-07-09T12:33:10.937Z,27.26
2018-07-09T12:34:10.855Z,27.29
2018-07-09T12:35:10.923Z,27.16
2018-07-09T12:36:10.872Z,27.26
2018-07-09T12:37:10.846Z,27.10
2018-07-09T12:38:10.839Z,27.15
2018-07-09T12:39:10.837Z,27.19
2018-07-09T12:40:10.838Z,27.15
2018-07-09T12:41:10.830Z,27.26
2018-07-09T12:42:10.823Z,27.25
2018-07-09T12:43:10.824Z,27.25
2018-07-09T12:44:10.817Z,27.26
2018-07-09T12:45:10.812Z,27.20
2018-07-09T12:46:11.003Z,27.23
2018-07-09T12:47:10.806Z,27.25
2018-07-09T12:48:10.801Z,27.19
2018-07-09T12:49:10.799Z,27.22
2018-07-09T12:50:10.797Z,27.18
2018-07-09T12:51:10.794Z,27.19
2018-07-09T12:52:10.789Z,27.11